createdAt,value
2022-10-07T00:04:32.301Z,23.5
2022-10-07T00:09:50.525Z,23.5
2022-10-07T00:15:08.988Z,23.5
2022-10-07T00:20:27.481Z,23.5
2022-10-07T00:25:45.727Z,23.5
2022-10-07T00:31:03.893Z,23.5
2022-10-07T00:36:22.298Z,23.5
2022-10-07T00:41:40.808Z,23.5
2022-10-07T00:46:58.994Z,23.5
2022-10-07T00:52:17.485Z,23.5
2022-10-07T00:57:35.709Z,23.5
2022-10-07T01:02:54.358Z,23.5
2022-10-07T01:08:13.077Z,23.5
2022-10-07T01:13:31.299Z,23.5
2022-10-07T01:18:49.481Z,23.5
2022-10-07T01:24:07.687Z,23.5
2022-10-07T01:29:26.212Z,23.5
2022-10-07T01:34:44.112Z,23.5
2022-10-07T01:40:02.597Z,23.5
2022-10-07T01:45:21.427Z,23.5
2022-10-07T01:50:39.906Z,23.4
2022-10-07T01:55:58.675Z,23.4
2022-10-07T02:01:17.727Z,23.4
2022-10-07T02:06:35.853Z,23.4
2022-10-07T02:11:54.338Z,23.4
2022-10-07T02:17:12.688Z,23.4
2022-10-07T02:22:31.226Z,23.4
2022-10-07T02:27:33.810Z,23.4
2022-10-07T02:32:52.609Z,23.4
2022-10-07T02:38:11.076Z,23.4
2022-10-07T02:43:29.291Z,23.4
2022-10-07T02:48:48.084Z,23.4
2022-10-07T02:54:05.993Z,23.4
2022-10-07T02:59:24.484Z,23.4
2022-10-07T03:04:43.086Z,23.4
2022-10-07T03:10:01.316Z,23.4
2022-10-07T03:15:19.813Z,23.4
2022-10-07T03:20:38.330Z,23.4
2022-10-07T03:25:56.516Z,23.4
2022-10-07T03:31:14.671Z,23.4
2022-10-07T03:36:32.809Z,23.4
2022-10-07T03:41:51.272Z,23.4
2022-10-07T03:47:11.450Z,23.4
2022-10-07T03:52:29.935Z,23.4
2022-10-07T03:57:48.400Z,23.4
2022-10-07T04:03:07.088Z,23.4
2022-10-07T04:08:25.833Z,23.4
2022-10-07T04:13:44.572Z,23.4
2022-10-07T04:19:03.347Z,23.4
2022-10-07T04:24:21.318Z,23.3
2022-10-07T04:29:39.576Z,23.3
2022-10-07T04:34:57.789Z,23.3
2022-10-07T04:40:16.302Z,23.3
2022-10-07T04:45:34.759Z,23.4
2022-10-07T04:50:52.980Z,23.4
2022-10-07T04:56:11.507Z,23
2022-10-07T05:01:29.753Z,22.6
2022-10-07T05:06:48.208Z,22.6
2022-10-07T05:12:07.200Z,22.8
2022-10-07T05:17:25.393Z,22.9
2022-10-07T05:22:43.907Z,23
2022-10-07T05:28:02.474Z,23
2022-10-07T05:33:20.463Z,23.1
2022-10-07T05:38:38.680Z,23.1
2022-10-07T05:43:57.202Z,23.2
2022-10-07T05:49:15.117Z,23.2
2022-10-07T05:54:33.882Z,23.3
2022-10-07T05:59:52.681Z,23.3
2022-10-07T06:05:11.138Z,23.4
2022-10-07T06:10:29.430Z,23.4
2022-10-07T06:15:47.951Z,23.4
2022-10-07T06:21:06.413Z,23.5
2022-10-07T06:26:24.901Z,23.5
2022-10-07T06:31:42.888Z,23.5
2022-10-07T06:37:00.783Z,23.5
2022-10-07T06:42:19.259Z,23.6
2022-10-07T06:47:37.236Z,23.6
2022-10-07T06:52:55.138Z,23.6
2022-10-07T06:58:13.634Z,23.7
2022-10-07T07:03:32.164Z,23.7
2022-10-07T07:08:50.358Z,23.7
2022-10-07T07:14:08.543Z,23.7
2022-10-07T07:19:26.786Z,23.7
2022-10-07T07:24:45.255Z,23.8
2022-10-07T07:29:47.846Z,23.8
2022-10-07T07:35:05.811Z,23.8
2022-10-07T07:40:23.715Z,23.8
2022-10-07T07:45:41.727Z,23.9
2022-10-07T07:51:00.288Z,23.9
2022-10-07T07:56:03.121Z,23.9
2022-10-07T08:01:22.070Z,24
2022-10-07T08:06:40.721Z,24
2022-10-07T08:11:58.977Z,24
2022-10-07T08:17:17.171Z,24
2022-10-07T08:22:35.971Z,24.1
2022-10-07T08:27:54.154Z,24.1
2022-10-07T08:33:12.370Z,24.1
2022-10-07T08:38:31.154Z,24.1
2022-10-07T08:43:49.648Z,24.2
2022-10-07T08:49:08.109Z,24.2
2022-10-07T08:54:11.023Z,24.2
2022-10-07T08:59:29.224Z,24.3
2022-10-07T09:04:47.428Z,24.3
2022-10-07T09:10:05.929Z,24.3
2022-10-07T09:15:23.834Z,24.3
2022-10-07T09:20:42.330Z,24.3
2022-10-07T09:26:00.568Z,24.4
2022-10-07T09:31:19.082Z,24.4
2022-10-07T09:36:37.941Z,24.4
2022-10-07T09:41:56.459Z,24.4
2022-10-07T09:47:15.203Z,24.4
2022-10-07T09:52:33.973Z,24.4
2022-10-07T09:57:52.764Z,24.4
2022-10-07T10:03:11.263Z,24.5
2022-10-07T10:08:29.741Z,24.5
2022-10-07T10:13:48.099Z,24.5
2022-10-07T10:19:06.555Z,24.5
2022-10-07T10:24:25.053Z,24.5
2022-10-07T10:29:43.011Z,24.5
2022-10-07T10:35:01.752Z,24.5
2022-10-07T10:40:20.071Z,24.5
2022-10-07T10:45:38.383Z,24.5
2022-10-07T10:50:56.552Z,24.5
2022-10-07T10:56:15.321Z,24.5
2022-10-07T11:01:33.754Z,24.5
2022-10-07T11:06:51.821Z,24.5
2022-10-07T11:12:10.017Z,24.5
2022-10-07T11:17:27.962Z,24.5
2022-10-07T11:22:46.858Z,24.5
2022-10-07T11:28:06.060Z,24.5
2022-10-07T11:33:24.612Z,24.5
2022-10-07T11:38:43.070Z,24.5
2022-10-07T11:44:01.559Z,24.5
2022-10-07T11:49:20.348Z,24.5
2022-10-07T11:54:38.832Z,24.5
2022-10-07T11:59:57.027Z,24.4
2022-10-07T12:05:15.540Z,24.4
2022-10-07T12:10:34.012Z,24.4
2022-10-07T12:15:52.832Z,24.4
2022-10-07T12:21:11.157Z,24.4
2022-10-07T12:26:29.607Z,24.4
2022-10-07T12:31:48.263Z,24.3
2022-10-07T12:37:06.974Z,24.3
2022-10-07T12:42:25.426Z,24.3
2022-10-07T12:47:44.173Z,24.3
2022-10-07T12:53:02.184Z,24.3
2022-10-07T12:58:20.925Z,24.2
2022-10-07T13:03:39.399Z,24.2
2022-10-07T13:08:57.616Z,24.2
2022-10-07T13:14:17.409Z,24.2
2022-10-07T13:19:36.180Z,24.2
2022-10-07T13:24:54.518Z,24.2
2022-10-07T13:30:13.063Z,24.2
2022-10-07T13:35:38.872Z,24.2
2022-10-07T13:40:58.116Z,24.2
2022-10-07T13:46:16.392Z,24.2
2022-10-07T13:51:34.416Z,24.1
2022-10-07T13:56:52.633Z,24.1
2022-10-07T14:02:11.529Z,24.1
2022-10-07T14:07:30.001Z,24.1
2022-10-07T14:12:49.306Z,24.1
2022-10-07T14:18:08.183Z,24.1
2022-10-07T14:23:26.663Z,24.1
2022-10-07T14:28:45.425Z,24
2022-10-07T14:34:03.483Z,24
2022-10-07T14:39:21.958Z,24
2022-10-07T14:44:40.466Z,24
2022-10-07T14:49:59.029Z,24
2022-10-07T14:55:17.341Z,24
2022-10-07T15:00:40.024Z,24
2022-10-07T15:05:58.600Z,24
2022-10-07T15:11:17.072Z,24
2022-10-07T15:16:35.490Z,24
2022-10-07T15:21:53.843Z,24
2022-10-07T15:27:12.608Z,24
2022-10-07T15:32:31.388Z,24
2022-10-07T15:37:49.291Z,24
2022-10-07T15:43:07.489Z,24
2022-10-07T15:48:26.278Z,23.9
2022-10-07T15:53:44.707Z,23.9
2022-10-07T15:59:03.180Z,23.9
2022-10-07T16:04:06.434Z,23.9
2022-10-07T16:09:24.803Z,23.9
2022-10-07T16:14:43.011Z,23.9
2022-10-07T16:20:01.445Z,23.9
2022-10-07T16:25:19.617Z,23.9
2022-10-07T16:30:37.852Z,23.9
2022-10-07T16:35:55.797Z,23.9
2022-10-07T16:41:14.038Z,23.8
2022-10-07T16:46:32.691Z,23.8
2022-10-07T16:51:51.021Z,23.8
2022-10-07T16:57:09.757Z,23.8
2022-10-07T17:02:28.242Z,23.8
2022-10-07T17:07:48.056Z,23.8
2022-10-07T17:13:06.722Z,23.8
2022-10-07T17:18:24.645Z,23.8
2022-10-07T17:23:43.446Z,23.8
2022-10-07T17:29:01.914Z,23.8
2022-10-07T17:34:20.393Z,23.8
2022-10-07T17:39:38.974Z,23.8
2022-10-07T17:44:57.149Z,23.8
2022-10-07T17:50:15.342Z,23.8
2022-10-07T17:55:33.575Z,23.8
2022-10-07T18:00:52.093Z,23.8
2022-10-07T18:06:10.371Z,23.7
2022-10-07T18:11:29.127Z,23.7
2022-10-07T18:16:47.375Z,23.7
2022-10-07T18:22:05.582Z,23.7
2022-10-07T18:27:23.825Z,23.7
2022-10-07T18:32:42.033Z,23.7
2022-10-07T18:38:00.802Z,23.7
2022-10-07T18:43:19.304Z,23.7
2022-10-07T18:48:38.187Z,23.7
2022-10-07T18:53:56.406Z,23.7
2022-10-07T18:58:59.302Z,23.6
2022-10-07T19:04:17.470Z,23.7
2022-10-07T19:09:35.966Z,23.7
2022-10-07T19:14:54.769Z,23.7
2022-10-07T19:20:12.673Z,23.7
2022-10-07T19:25:31.139Z,23.7
2022-10-07T19:30:49.989Z,23.7
2022-10-07T19:36:08.532Z,23.6
2022-10-07T19:41:27.015Z,23.7
2022-10-07T19:46:45.523Z,23.6
2022-10-07T19:52:04.264Z,23.6
2022-10-07T19:57:23.037Z,23.6
2022-10-07T20:02:41.860Z,23.6
2022-10-07T20:08:00.558Z,23.6
2022-10-07T20:13:22.225Z,23.7
2022-10-07T20:18:41.015Z,23.6
2022-10-07T20:23:59.489Z,23.7
2022-10-07T20:29:25.210Z,23.7
2022-10-07T20:34:44.070Z,23.7
2022-10-07T20:40:02.750Z,23.7
2022-10-07T20:45:20.972Z,23.7
2022-10-07T20:50:39.767Z,23.7
2022-10-07T20:55:58.222Z,23.7
2022-10-07T21:01:17.336Z,23.7
2022-10-07T21:06:35.744Z,23.7
2022-10-07T21:11:54.210Z,23.7
2022-10-07T21:17:12.984Z,23.7
2022-10-07T21:22:31.211Z,23.7
2022-10-07T21:27:49.394Z,23.7
2022-10-07T21:33:07.606Z,23.7
2022-10-07T21:38:26.113Z,23.7
2022-10-07T21:43:44.571Z,23.7
2022-10-07T21:49:02.503Z,23.7
2022-10-07T21:54:21.047Z,23.7
2022-10-07T21:59:39.238Z,23.7
2022-10-07T22:04:57.868Z,23.7
2022-10-07T22:10:16.397Z,23.6
2022-10-07T22:15:34.690Z,23.7
2022-10-07T22:20:53.013Z,23.6
2022-10-07T22:26:11.250Z,23.6
2022-10-07T22:31:29.309Z,23.6
2022-10-07T22:36:47.849Z,23.6
2022-10-07T22:42:06.519Z,23.6
2022-10-07T22:47:24.698Z,23.6
2022-10-07T22:52:42.903Z,23.6
2022-10-07T22:58:01.539Z,23.6
2022-10-07T23:03:20.355Z,23.6
2022-10-07T23:08:38.915Z,23.6
2022-10-07T23:13:57.520Z,23.6
2022-10-07T23:19:15.715Z,23.6
2022-10-07T23:24:34.474Z,23.6
2022-10-07T23:29:52.448Z,23.6
2022-10-07T23:35:10.628Z,23.6
2022-10-07T23:40:29.390Z,23.6
2022-10-07T23:45:47.899Z,23.6
2022-10-07T23:51:06.084Z,23.6
2022-10-07T23:56:24.861Z,23.6
